Aviation Digital Data Service (ADDS)

Output produced by TAFs form (1739 UTC 21 April 2018)
found at http://aviationweather.gov/adds/tafs/
 
RJFM 211200Z 20005KT 9999 FEW030 19/15 Q1021
TAF RJFM 211707Z 2118/2300 30005KT 9999 FEW020 
     BECMG 2123/2201 12010KT 
     BECMG 2209/2212 29005KT